createdAt,value
2022-09-06T00:01:38.837Z,17.80
2022-09-06T00:04:05.566Z,17.75
2022-09-06T00:06:32.163Z,17.73
2022-09-06T00:08:58.728Z,17.70
2022-09-06T00:11:25.695Z,17.77
2022-09-06T00:13:52.391Z,17.83
2022-09-06T00:16:27.289Z,17.79
2022-09-06T00:18:56.486Z,17.88
2022-09-06T00:21:28.457Z,17.85
2022-09-06T00:23:55.706Z,17.89
2022-09-06T00:26:22.993Z,17.87
2022-09-06T00:28:49.990Z,18.02
2022-09-06T00:31:23.132Z,17.77
2022-09-06T00:33:50.299Z,17.69
2022-09-06T00:36:16.959Z,17.65
2022-09-06T00:38:44.171Z,17.61
2022-09-06T00:41:13.053Z,17.69
2022-09-06T00:43:39.688Z,17.65
2022-09-06T00:46:08.611Z,17.77
2022-09-06T00:48:37.602Z,17.75
2022-09-06T00:51:08.162Z,17.71
2022-09-06T00:53:34.877Z,17.70
2022-09-06T00:56:02.073Z,17.84
2022-09-06T00:58:28.988Z,17.86
2022-09-06T01:00:55.782Z,17.84
2022-09-06T01:03:24.474Z,17.98
2022-09-06T01:06:18.062Z,18.07
2022-09-06T01:09:22.240Z,18.17
2022-09-06T01:12:06.509Z,18.17
2022-09-06T01:14:49.485Z,18.19
2022-09-06T01:17:44.061Z,18.26
2022-09-06T01:20:19.742Z,18.20
2022-09-06T01:23:06.503Z,18.14
2022-09-06T01:25:54.381Z,18.10
2022-09-06T01:28:37.815Z,17.93
2022-09-06T01:31:36.835Z,17.90
2022-09-06T01:34:06.371Z,17.90
2022-09-06T01:37:09.564Z,17.94
2022-09-06T01:39:39.394Z,17.96
2022-09-06T01:42:12.225Z,17.98
2022-09-06T01:44:44.478Z,18.12
2022-09-06T01:47:28.972Z,18.23
2022-09-06T01:50:13.991Z,18.16
2022-09-06T01:52:55.344Z,18.19
2022-09-06T01:55:32.568Z,18.24
2022-09-06T01:58:14.186Z,18.05
2022-09-06T02:00:48.603Z,17.88
2022-09-06T02:03:32.310Z,17.88
2022-09-06T02:06:11.911Z,17.91
2022-09-06T02:08:49.225Z,17.65
2022-09-06T02:11:16.706Z,17.54
2022-09-06T02:13:52.496Z,17.48
2022-09-06T02:16:23.471Z,17.40
2022-09-06T02:18:56.836Z,17.33
2022-09-06T02:21:29.636Z,17.28
2022-09-06T02:24:00.553Z,17.22
2022-09-06T02:26:30.573Z,17.14
2022-09-06T02:28:57.674Z,17.16
2022-09-06T02:31:31.637Z,17.19
2022-09-06T02:33:58.935Z,17.15
2022-09-06T02:36:25.915Z,17.15
2022-09-06T02:38:54.658Z,17.26
2022-09-06T02:41:24.238Z,17.13
2022-09-06T02:43:50.868Z,17.09
2022-09-06T02:46:17.613Z,17.04
2022-09-06T02:48:44.273Z,16.95
2022-09-06T02:51:10.869Z,16.90
2022-09-06T02:53:37.519Z,16.86
2022-09-06T02:56:04.336Z,16.91
2022-09-06T02:58:31.232Z,17.00
2022-09-06T03:00:57.959Z,16.97
2022-09-06T03:03:25.057Z,17.06
2022-09-06T03:05:53.309Z,17.00
2022-09-06T03:08:22.102Z,17.13
2022-09-06T03:10:56.480Z,16.98
2022-09-06T03:13:24.425Z,16.96
2022-09-06T03:15:52.671Z,16.80
2022-09-06T03:18:19.755Z,16.74
2022-09-06T03:20:48.491Z,16.65
2022-09-06T03:23:15.046Z,16.65
2022-09-06T03:25:43.309Z,16.68
2022-09-06T03:28:09.956Z,16.81
2022-09-06T03:30:36.593Z,17.00
2022-09-06T03:33:03.286Z,17.10
2022-09-06T03:35:29.880Z,17.14
2022-09-06T03:37:56.609Z,16.97
2022-09-06T03:40:23.410Z,17.07
2022-09-06T03:42:49.967Z,17.25
2022-09-06T03:45:16.597Z,17.22
2022-09-06T03:47:43.237Z,17.14
2022-09-06T03:50:10.047Z,17.05
2022-09-06T03:52:36.658Z,17.20
2022-09-06T03:55:04.414Z,17.10
2022-09-06T03:57:30.990Z,17.02
2022-09-06T03:59:57.579Z,17.09
2022-09-06T04:02:24.223Z,17.15
2022-09-06T04:04:55.399Z,17.23
2022-09-06T04:07:23.356Z,17.35
2022-09-06T04:09:49.885Z,17.36
2022-09-06T04:12:16.457Z,17.42
2022-09-06T04:14:43.006Z,17.46
2022-09-06T04:17:09.763Z,17.55
2022-09-06T04:19:36.359Z,17.68
2022-09-06T04:22:03.372Z,17.76
2022-09-06T04:24:29.892Z,17.81
2022-09-06T04:26:56.598Z,17.80
2022-09-06T04:29:23.686Z,17.77
2022-09-06T04:31:50.345Z,17.83
2022-09-06T04:34:16.916Z,18.00
2022-09-06T04:36:47.701Z,18.06
2022-09-06T04:39:14.958Z,18.07
2022-09-06T04:41:42.325Z,18.00
2022-09-06T04:44:08.882Z,17.98
2022-09-06T04:46:35.519Z,18.07
2022-09-06T04:49:02.045Z,18.04
2022-09-06T04:51:28.576Z,18.06
2022-09-06T04:53:55.239Z,18.03
2022-09-06T04:56:24.495Z,18.04
2022-09-06T05:02:33.713Z,18.10
2022-09-06T05:05:00.306Z,18.07
2022-09-06T05:07:26.887Z,18.18
2022-09-06T05:09:53.430Z,18.35
2022-09-06T05:12:19.974Z,18.38
2022-09-06T05:14:46.693Z,18.43
2022-09-06T05:17:14.797Z,18.50
2022-09-06T05:19:41.563Z,18.48
2022-09-06T05:22:08.126Z,18.53
2022-09-06T05:24:34.654Z,18.68
2022-09-06T05:27:03.904Z,18.68
2022-09-06T05:29:30.824Z,18.72
2022-09-06T05:34:51.542Z,18.80
2022-09-06T05:37:18.089Z,18.84
2022-09-06T05:39:44.755Z,18.86
2022-09-06T05:42:13.162Z,18.95
2022-09-06T05:44:42.678Z,18.92
2022-09-06T05:47:09.574Z,18.99
2022-09-06T05:49:36.141Z,19.04
2022-09-06T05:52:02.926Z,19.03
2022-09-06T05:54:29.471Z,19.09
2022-09-06T05:56:56.074Z,19.13
2022-09-06T05:59:22.638Z,19.20
2022-09-06T06:01:52.044Z,19.32
2022-09-06T06:07:13.639Z,19.39
2022-09-06T06:09:40.783Z,19.41
2022-09-06T06:12:08.422Z,19.52
2022-09-06T06:14:35.190Z,19.74
2022-09-06T06:17:02.611Z,19.82
2022-09-06T06:19:29.234Z,19.91
2022-09-06T06:21:56.302Z,19.97
2022-09-06T06:24:22.967Z,20.15
2022-09-06T06:26:49.691Z,20.20
2022-09-06T06:29:16.306Z,20.30
2022-09-06T06:31:42.921Z,20.41
2022-09-06T06:34:09.546Z,20.45
2022-09-06T06:36:36.765Z,20.60
2022-09-06T06:39:06.935Z,20.75
2022-09-06T06:41:33.463Z,20.81
2022-09-06T06:44:02.086Z,20.94
2022-09-06T06:46:31.642Z,20.90
2022-09-06T06:48:58.326Z,21.01
2022-09-06T06:51:28.323Z,21.17
2022-09-06T06:53:57.089Z,21.11
2022-09-06T06:56:29.855Z,21.37
2022-09-06T06:58:58.766Z,21.38
2022-09-06T07:01:26.990Z,21.46
2022-09-06T07:03:54.435Z,21.51
2022-09-06T07:09:08.904Z,21.88
2022-09-06T07:11:35.446Z,21.94
2022-09-06T07:14:02.155Z,21.84
2022-09-06T07:16:30.038Z,21.88
2022-09-06T07:18:56.717Z,22.05
2022-09-06T07:21:42.201Z,22.06
2022-09-06T07:24:09.558Z,22.04
2022-09-06T07:26:39.502Z,21.96
2022-09-06T07:29:07.785Z,22.13
2022-09-06T07:34:22.493Z,22.09
2022-09-06T07:36:52.791Z,22.48
2022-09-06T07:39:19.401Z,22.50
2022-09-06T07:41:45.958Z,22.62
2022-09-06T07:44:12.503Z,22.57
2022-09-06T07:46:39.487Z,22.64
2022-09-06T07:49:07.464Z,22.96
2022-09-06T07:51:34.183Z,22.96
2022-09-06T07:56:47.783Z,23.29
2022-09-06T07:59:14.843Z,23.35
2022-09-06T08:01:42.259Z,23.32
2022-09-06T08:04:14.080Z,23.44
2022-09-06T08:09:30.764Z,23.68
2022-09-06T08:11:57.377Z,23.80
2022-09-06T08:14:24.105Z,23.87
2022-09-06T08:16:50.676Z,23.69
2022-09-06T08:19:18.394Z,23.84
2022-09-06T08:21:45.082Z,24.16
2022-09-06T08:24:11.681Z,24.31
2022-09-06T08:26:45.466Z,24.48
2022-09-06T08:29:12.955Z,24.53
2022-09-06T08:31:42.135Z,24.65
2022-09-06T08:34:09.130Z,24.58
2022-09-06T08:36:36.136Z,24.52
2022-09-06T08:39:05.688Z,24.36
2022-09-06T08:41:47.638Z,24.56
2022-09-06T08:47:24.484Z,25.51
2022-09-06T08:49:56.794Z,26.07
2022-09-06T08:53:06.253Z,26.19
2022-09-06T08:55:42.309Z,26.24
2022-09-06T08:58:08.872Z,26.74
2022-09-06T09:00:38.264Z,27.04
2022-09-06T09:03:16.839Z,26.95
2022-09-06T09:05:49.934Z,26.93
2022-09-06T09:08:22.315Z,26.88
2022-09-06T09:10:54.230Z,27.09
2022-09-06T09:13:28.273Z,27.28
2022-09-06T09:15:54.946Z,27.19
2022-09-06T09:18:31.647Z,27.07
2022-09-06T09:20:58.923Z,27.08
2022-09-06T09:23:25.782Z,26.65
2022-09-06T09:25:55.710Z,25.99
2022-09-06T09:28:23.943Z,26.02
2022-09-06T09:30:56.258Z,25.98
2022-09-06T09:33:33.400Z,25.69
2022-09-06T09:36:02.489Z,25.69
2022-09-06T09:38:42.765Z,25.59
2022-09-06T09:41:11.849Z,25.57
2022-09-06T09:43:41.395Z,25.65
2022-09-06T09:46:07.902Z,25.94
2022-09-06T09:48:34.568Z,25.89
2022-09-06T09:51:26.228Z,25.87
2022-09-06T09:53:59.013Z,25.89
2022-09-06T09:56:30.875Z,25.78
2022-09-06T09:58:58.949Z,25.84
2022-09-06T10:01:35.865Z,26.46
2022-09-06T10:07:12.681Z,26.56
2022-09-06T10:09:46.399Z,26.71
2022-09-06T10:12:29.130Z,26.32
2022-09-06T10:14:56.514Z,25.83
2022-09-06T10:17:38.220Z,25.62
2022-09-06T10:20:10.838Z,25.46
2022-09-06T10:23:05.442Z,25.03
2022-09-06T10:25:47.709Z,24.51
2022-09-06T10:28:47.890Z,24.07
2022-09-06T10:31:20.478Z,23.71
2022-09-06T10:33:58.853Z,23.38
2022-09-06T10:36:34.516Z,22.77
2022-09-06T10:39:04.403Z,22.54
2022-09-06T10:42:06.306Z,22.11
2022-09-06T10:44:42.609Z,21.90
2022-09-06T10:47:12.223Z,21.42
2022-09-06T10:49:50.236Z,21.40
2022-09-06T10:52:33.838Z,20.93
2022-09-06T10:55:04.926Z,20.90
2022-09-06T11:00:29.470Z,19.73
2022-09-06T11:06:02.355Z,19.50
2022-09-06T11:11:26.224Z,19.66
2022-09-06T11:13:52.848Z,19.69
2022-09-06T11:16:28.341Z,19.70
2022-09-06T11:18:57.641Z,19.72
2022-09-06T11:21:49.115Z,19.61
2022-09-06T11:24:49.879Z,19.80
2022-09-06T11:27:31.763Z,19.77
2022-09-06T11:30:01.876Z,19.78
2022-09-06T11:32:40.091Z,19.98
2022-09-06T11:35:11.053Z,19.93
2022-09-06T11:37:42.918Z,19.89
2022-09-06T11:40:29.123Z,19.85
2022-09-06T11:42:55.966Z,19.94
2022-09-06T11:45:42.184Z,19.91
2022-09-06T11:48:23.858Z,20.02
2022-09-06T11:51:06.925Z,20.10
2022-09-06T11:53:48.690Z,20.15
2022-09-06T11:56:28.361Z,20.15
2022-09-06T11:59:06.008Z,20.22
2022-09-06T12:01:35.837Z,20.35
2022-09-06T12:04:06.953Z,20.18
2022-09-06T12:07:13.074Z,20.38
2022-09-06T12:09:46.263Z,20.45
2022-09-06T12:12:38.465Z,20.32
2022-09-06T12:15:45.260Z,20.58
2022-09-06T12:18:43.591Z,20.66
2022-09-06T12:21:43.699Z,20.48
2022-09-06T12:24:36.271Z,20.75
2022-09-06T12:27:25.050Z,20.88
2022-09-06T12:30:00.611Z,20.92
2022-09-06T12:32:36.623Z,20.90
2022-09-06T12:38:04.576Z,20.56
2022-09-06T12:40:35.198Z,20.57
2022-09-06T12:43:04.518Z,20.53
2022-09-06T12:45:31.899Z,20.65
2022-09-06T12:48:11.720Z,20.80
2022-09-06T12:50:38.973Z,20.79
2022-09-06T12:53:26.764Z,21.11
2022-09-06T12:56:03.368Z,21.77
2022-09-06T12:58:30.145Z,23.09
2022-09-06T13:01:04.330Z,23.52
2022-09-06T13:03:45.682Z,24.43
2022-09-06T13:06:26.080Z,25.35
2022-09-06T13:08:58.795Z,25.76
2022-09-06T13:11:34.474Z,25.53
2022-09-06T13:14:13.834Z,25.28
2022-09-06T13:16:48.333Z,24.87
2022-09-06T13:19:29.856Z,24.84
2022-09-06T13:21:58.393Z,24.52
2022-09-06T13:24:41.367Z,24.48
2022-09-06T13:27:24.615Z,24.10
2022-09-06T13:29:59.621Z,23.93
2022-09-06T13:32:27.786Z,24.11
2022-09-06T13:34:58.258Z,24.24
2022-09-06T13:37:27.981Z,24.05
2022-09-06T13:39:54.929Z,24.10
2022-09-06T13:42:35.615Z,24.23
2022-09-06T13:45:41.180Z,24.80
2022-09-06T13:48:26.210Z,24.82
2022-09-06T13:50:54.277Z,24.88
2022-09-06T13:53:20.883Z,24.55
2022-09-06T13:55:47.459Z,24.44
2022-09-06T13:58:14.019Z,24.75
2022-09-06T14:00:41.255Z,24.77
2022-09-06T14:03:13.695Z,23.92
2022-09-06T14:05:40.303Z,24.03
2022-09-06T14:08:07.118Z,24.21
2022-09-06T14:10:33.649Z,24.16
2022-09-06T14:13:00.191Z,24.43
2022-09-06T14:15:26.771Z,24.21
2022-09-06T14:17:53.349Z,24.50
2022-09-06T14:20:19.874Z,24.48
2022-09-06T14:22:47.605Z,24.24
2022-09-06T14:25:14.202Z,23.94
2022-09-06T14:27:40.819Z,24.40
2022-09-06T14:30:07.818Z,25.25
2022-09-06T14:32:34.417Z,25.16
2022-09-06T14:35:02.079Z,25.47
2022-09-06T14:37:28.672Z,25.78
2022-09-06T14:39:55.261Z,26.73
2022-09-06T14:42:24.617Z,26.51
2022-09-06T14:44:51.886Z,26.28
2022-09-06T14:47:18.461Z,26.70
2022-09-06T14:49:45.051Z,26.30
2022-09-06T14:52:11.607Z,27.26
2022-09-06T14:54:38.146Z,27.85
2022-09-06T14:57:05.387Z,27.95
2022-09-06T14:59:31.926Z,27.03
2022-09-06T15:01:58.549Z,26.36
2022-09-06T15:04:26.380Z,26.08
2022-09-06T15:06:53.025Z,25.36
2022-09-06T15:09:19.587Z,25.75
2022-09-06T15:11:51.487Z,25.82
2022-09-06T15:14:20.827Z,25.68
2022-09-06T15:16:53.489Z,25.33
2022-09-06T15:19:24.387Z,24.63
2022-09-06T15:21:51.012Z,23.92
2022-09-06T15:24:17.861Z,23.61
2022-09-06T15:26:44.841Z,23.56
2022-09-06T15:29:12.678Z,23.60
2022-09-06T15:31:40.044Z,23.72
2022-09-06T15:34:08.467Z,23.70
2022-09-06T15:36:36.880Z,23.36
2022-09-06T15:39:05.087Z,23.30
2022-09-06T15:41:35.638Z,22.67
2022-09-06T15:44:08.806Z,22.56
2022-09-06T15:46:35.375Z,22.83
2022-09-06T15:49:05.646Z,23.06
2022-09-06T15:51:34.267Z,22.76
2022-09-06T15:54:00.944Z,23.04
2022-09-06T15:56:27.562Z,22.79
2022-09-06T15:58:54.280Z,23.61
2022-09-06T16:01:23.865Z,23.95
2022-09-06T16:03:53.358Z,24.13
2022-09-06T16:06:25.429Z,24.40
2022-09-06T16:09:00.981Z,24.09
2022-09-06T16:11:29.070Z,23.36
2022-09-06T16:13:56.452Z,23.39
2022-09-06T16:16:23.319Z,24.37
2022-09-06T16:18:51.903Z,26.79
2022-09-06T16:21:23.787Z,28.65
2022-09-06T16:23:53.616Z,29.97
2022-09-06T16:26:21.860Z,30.25
2022-09-06T16:28:50.855Z,30.72
2022-09-06T16:31:18.610Z,31.04
2022-09-06T16:33:45.792Z,30.45
2022-09-06T16:36:13.932Z,29.29
2022-09-06T16:38:41.792Z,27.99
2022-09-06T16:41:13.403Z,27.19
2022-09-06T16:43:40.351Z,25.88
2022-09-06T16:46:07.814Z,25.21
2022-09-06T16:48:35.186Z,24.45
2022-09-06T16:51:10.928Z,24.41
2022-09-06T16:53:39.325Z,24.17
2022-09-06T16:56:06.068Z,23.77
2022-09-06T16:58:32.623Z,23.58
2022-09-06T17:00:59.913Z,23.34
2022-09-06T17:03:26.739Z,22.75
2022-09-06T17:05:53.719Z,22.93
2022-09-06T17:08:20.719Z,22.77
2022-09-06T17:10:47.341Z,22.89
2022-09-06T17:13:14.750Z,23.00
2022-09-06T17:15:59.642Z,22.64
2022-09-06T17:18:26.849Z,22.33
2022-09-06T17:21:02.025Z,22.00
2022-09-06T17:23:28.645Z,22.22
2022-09-06T17:25:55.219Z,22.26
2022-09-06T17:28:23.338Z,21.62
2022-09-06T17:30:51.261Z,20.91
2022-09-06T17:33:18.982Z,20.59
2022-09-06T17:35:46.429Z,20.58
2022-09-06T17:38:14.304Z,20.69
2022-09-06T17:40:40.883Z,21.03
2022-09-06T17:43:07.548Z,20.79
2022-09-06T17:45:45.057Z,20.17
2022-09-06T17:48:11.594Z,19.94
2022-09-06T17:50:40.076Z,19.94
2022-09-06T17:53:06.607Z,19.81
2022-09-06T17:55:33.173Z,20.10
2022-09-06T17:57:59.800Z,19.87
2022-09-06T18:00:26.420Z,19.60
2022-09-06T18:02:53.275Z,19.50
2022-09-06T18:05:19.997Z,19.25
2022-09-06T18:07:47.357Z,19.06
2022-09-06T18:10:15.199Z,19.17
2022-09-06T18:12:42.430Z,19.01
2022-09-06T18:15:09.555Z,18.90
2022-09-06T18:17:36.273Z,18.96
2022-09-06T18:20:04.771Z,19.07
2022-09-06T18:22:31.731Z,18.86
2022-09-06T18:24:58.622Z,18.70
2022-09-06T18:27:25.822Z,18.71
2022-09-06T18:29:52.430Z,18.84
2022-09-06T18:32:19.127Z,18.83
2022-09-06T18:34:45.709Z,18.70
2022-09-06T18:37:12.450Z,18.76
2022-09-06T18:39:39.721Z,18.82
2022-09-06T18:42:11.156Z,18.74
2022-09-06T18:44:38.414Z,18.69
2022-09-06T18:47:07.414Z,18.73
2022-09-06T18:49:34.832Z,18.77
2022-09-06T18:52:03.436Z,18.82
2022-09-06T18:54:30.595Z,18.81
2022-09-06T18:56:57.424Z,18.79
2022-09-06T18:59:24.543Z,18.84
2022-09-06T19:01:51.423Z,18.77
2022-09-06T19:04:18.111Z,18.86
2022-09-06T19:06:45.094Z,18.82
2022-09-06T19:09:15.176Z,18.88
2022-09-06T19:11:43.418Z,19.00
2022-09-06T19:14:09.993Z,19.13
2022-09-06T19:16:36.654Z,19.03
2022-09-06T19:19:07.540Z,19.12
2022-09-06T19:21:39.200Z,19.21
2022-09-06T19:24:10.287Z,19.23
2022-09-06T19:26:40.657Z,19.12
2022-09-06T19:29:11.766Z,19.13
2022-09-06T19:31:39.565Z,19.17
2022-09-06T19:34:06.459Z,19.27
2022-09-06T19:36:33.718Z,19.28
2022-09-06T19:39:04.140Z,19.26
2022-09-06T19:41:33.519Z,19.32
2022-09-06T19:44:00.537Z,19.29
2022-09-06T19:46:27.713Z,19.24
2022-09-06T19:48:58.320Z,19.27
2022-09-06T19:51:24.972Z,19.18
2022-09-06T19:53:54.147Z,19.10
2022-09-06T19:56:23.479Z,19.20
2022-09-06T19:59:04.611Z,19.27
2022-09-06T20:01:33.066Z,19.16
2022-09-06T20:04:02.890Z,19.23
2022-09-06T20:06:30.356Z,19.25
2022-09-06T20:08:58.135Z,19.22
2022-09-06T20:11:27.416Z,19.17
2022-09-06T20:13:53.997Z,19.13
2022-09-06T20:16:21.720Z,19.20
2022-09-06T20:18:49.079Z,19.16
2022-09-06T20:21:18.451Z,19.23
2022-09-06T20:23:49.991Z,19.34
2022-09-06T20:26:17.536Z,19.23
2022-09-06T20:28:44.326Z,19.09
2022-09-06T20:31:14.133Z,19.10
2022-09-06T20:33:40.833Z,19.02
2022-09-06T20:36:09.502Z,19.02
2022-09-06T20:38:41.587Z,19.06
2022-09-06T20:41:10.997Z,19.07
2022-09-06T20:43:38.724Z,18.95
2022-09-06T20:46:09.964Z,19.02
2022-09-06T20:48:40.921Z,18.93
2022-09-06T20:51:18.751Z,18.90
2022-09-06T20:53:47.966Z,18.83
2022-09-06T20:56:17.783Z,18.72
2022-09-06T20:58:51.683Z,18.76
2022-09-06T21:01:22.731Z,18.75
2022-09-06T21:03:54.858Z,18.71
2022-09-06T21:06:22.792Z,18.87
2022-09-06T21:08:50.203Z,18.86
2022-09-06T21:11:17.205Z,18.76
2022-09-06T21:13:44.114Z,18.68
2022-09-06T21:16:11.057Z,18.55
2022-09-06T21:18:37.668Z,18.59
2022-09-06T21:21:08.616Z,18.54
2022-09-06T21:23:38.063Z,18.53
2022-09-06T21:26:10.082Z,18.53
2022-09-06T21:28:39.795Z,18.67
2022-09-06T21:31:12.106Z,18.59
2022-09-06T21:33:52.589Z,18.43
2022-09-06T21:36:30.472Z,18.39
2022-09-06T21:38:59.444Z,18.63
2022-09-06T21:41:26.709Z,18.51
2022-09-06T21:43:55.870Z,18.46
2022-09-06T21:46:25.973Z,18.75
2022-09-06T21:48:55.451Z,18.80
2022-09-06T21:51:24.739Z,18.73
2022-09-06T21:53:52.089Z,18.67
2022-09-06T21:56:23.878Z,18.71
2022-09-06T21:58:57.446Z,18.59
2022-09-06T22:01:26.538Z,18.42
2022-09-06T22:03:53.234Z,18.36
2022-09-06T22:06:23.208Z,18.28
2022-09-06T22:08:49.766Z,18.10
2022-09-06T22:11:21.827Z,18.06
2022-09-06T22:13:49.547Z,17.92
2022-09-06T22:16:19.506Z,17.84
2022-09-06T22:18:47.541Z,17.75
2022-09-06T22:21:18.653Z,17.83
2022-09-06T22:23:58.687Z,17.75
2022-09-06T22:26:27.647Z,17.84
2022-09-06T22:28:56.334Z,17.65
2022-09-06T22:31:24.416Z,17.48
2022-09-06T22:33:50.986Z,17.43
2022-09-06T22:36:17.528Z,17.36
2022-09-06T22:38:44.176Z,17.37
2022-09-06T22:41:11.435Z,17.42
2022-09-06T22:43:38.331Z,17.45
2022-09-06T22:46:06.571Z,17.36
2022-09-06T22:48:34.114Z,17.30
2022-09-06T22:51:01.742Z,17.27
2022-09-06T22:53:29.590Z,17.18
2022-09-06T22:55:56.811Z,17.07
2022-09-06T22:58:24.971Z,17.05
2022-09-06T23:00:51.652Z,16.92
2022-09-06T23:03:18.355Z,16.87
2022-09-06T23:05:44.896Z,16.89
2022-09-06T23:08:11.731Z,16.90
2022-09-06T23:10:42.556Z,16.80
2022-09-06T23:13:10.540Z,16.76
2022-09-06T23:15:38.683Z,16.73
2022-09-06T23:18:05.297Z,16.68
2022-09-06T23:20:31.986Z,16.66
2022-09-06T23:22:58.575Z,16.72
2022-09-06T23:25:25.119Z,16.66
2022-09-06T23:27:51.672Z,16.69
2022-09-06T23:30:18.856Z,16.71
2022-09-06T23:32:45.552Z,16.70
2022-09-06T23:35:12.178Z,16.65
2022-09-06T23:37:38.718Z,16.61
2022-09-06T23:40:08.964Z,16.53
2022-09-06T23:42:35.847Z,16.51
2022-09-06T23:45:02.475Z,16.45
2022-09-06T23:47:29.013Z,16.44
2022-09-06T23:49:55.532Z,16.61
2022-09-06T23:52:22.251Z,16.52
2022-09-06T23:54:48.886Z,16.52
2022-09-06T23:57:15.443Z,16.52
2022-09-06T23:59:42.021Z,16.71
